Nearby METAR Reports

 

KPMP - Pompano Beach, Florida, USA
Distance from station: NNW 3mi, 5km
Updated: 07/19/2024 6:53am
Partly cloudy
Partly cloudy
 Wind from calm
Wind: Calm
Temperature: 82°F, 28°C
Heat Index: 91°F, 33°C
Dew Point: 79°F, 26°C
Humidity: 89%
Barometer: 30.07 inHg, 1018.3 hPa
Clouds: Partly cloudy
Visibility: 10 miles, 16 km
Cloud details: Partly cloudy 2100 ft
2024/07/19 10:53 KPMP 191053Z 00000KT 10SM SCT021 28/26 A3007 RMK AO2 SLP182 T02830256 $
KFXE - Ft Lauderd/Exec, Florida, USA
Distance from station: W 6mi, 9km
Updated: 07/19/2024 6:53am
Few Clouds
Few Clouds
 Wind from calm
Wind: Calm
Temperature: 84°F, 29°C
Heat Index: 98°F, 37°C
Dew Point: 81°F, 27°C
Humidity: 89%
Barometer: 30.06 inHg, 1017.9 hPa
Clouds: Few Clouds
Visibility: 10 miles, 16 km
Cloud details: Few Clouds 3000 ft
2024/07/19 10:53 KFXE 191053Z 00000KT 10SM FEW030 29/27 A3006 RMK AO2 LTG DSNT N SLP182 T02890267
 
KFLL - Ft Lauderd/Holly, Florida, USA
Distance from station: SSW 11mi, 17km
Updated: 07/19/2024 6:53am
Partly cloudy
Partly cloudy
 Wind from calm
Wind: Calm
Temperature: 84°F, 29°C
Heat Index: 96°F, 36°C
Dew Point: 79°F, 26°C
Humidity: 84%
Barometer: 30.06 inHg, 1017.9 hPa
Clouds: Partly cloudy
Visibility: 10 miles, 16 km
Cloud details: Partly cloudy 2500 ft
Partly cloudy 11000 ft
Partly cloudy 25000 ft
2024/07/19 10:53 KFLL 191053Z 00000KT 10SM SCT025 SCT110 SCT250 29/26 A3006 RMK AO2 LTG DSNT N SLP177 T02890256
KBCT - Boca Raton, Florida, USA
Distance from station: N 12mi, 19km
Updated: 07/19/2024 6:53am
Thunderstorm, Partly cloudy
Thunderstorm, Partly cloudy
 Wind from calm
Wind: Calm
Temperature: 81°F, 27°C
Heat Index: 89°F, 32°C
Dew Point: 79°F, 26°C
Humidity: 94%
Barometer: 30.07 inHg, 1018.3 hPa
Summary: Thunderstorm
Clouds: Partly cloudy
Visibility: 10 miles, 16 km
Cloud details: Partly cloudy 2500 ft
2024/07/19 10:53 KBCT 191053Z 00000KT 10SM TS SCT025 27/26 A3007
 
KHWO - Hollywood, Florida, USA
Distance from station: SSW 17mi, 27km
Updated: 07/19/2024 6:53am
Clear
Clear
 
Temperature: 82°F, 28°C
Heat Index: 91°F, 33°C
Dew Point: 79°F, 26°C
Humidity: 89%
Barometer: 30.07 inHg, 1018.3 hPa
Clouds: Clear
Visibility: 10 miles, 16 km
2024/07/19 10:53 KHWO 191053Z 10SM CLR 28/26 A3007 RMK AO2 SLP184 T02780256 $
KOPF - Miami/Opa Locka, Florida, USA
Distance from station: SSW 24mi, 38km
Updated: 07/19/2024 6:53am
Clear
Clear
 Wind from ENE
Wind: ENE 3 mph, 6 km/h
Temperature: 82°F, 28°C
Heat Index: 90°F, 32°C
Dew Point: 77°F, 25°C
Humidity: 84%
Barometer: 30.06 inHg, 1017.9 hPa
Clouds: Clear
Visibility: 10 miles, 16 km
2024/07/19 10:53 KOPF 191053Z 07003KT 10SM CLR 28/25 A3006 RMK AO2 SLP181 T02830250
 
KMIA - Miami, Florida, USA
Distance from station: SSW 31mi, 50km
Updated: 07/19/2024 6:53am
Partly cloudy
Partly cloudy
 Wind from ESE
Wind: ESE 3 mph, 6 km/h
Temperature: 82°F, 28°C
Heat Index: 89°F, 32°C
Dew Point: 75°F, 24°C
Humidity: 79%
Barometer: 30.05 inHg, 1017.6 hPa
Clouds: Partly cloudy
Visibility: 10 miles, 16 km
Cloud details: Few Clouds 2700 ft
Partly cloudy 25000 ft
2024/07/19 10:53 KMIA 191053Z 11003KT 10SM FEW027 SCT250 28/24 A3005 RMK AO2 SLP176 CB DSNT NE-SE MOV NW T02830244
KPBI - West Palm Beach, Florida, USA
Distance from station: N 33mi, 52km
Updated: 07/19/2024 6:53am
Light thunderstorm, Rain, Mostly cloudy
Light thunderstorm, Rain, Mostly cloudy
 Wind from SSW
Wind: SSW 8 mph, 13 km/h
Temperature: 79°F, 26°C
Dew Point: 75°F, 24°C
Humidity: 89%
Barometer: 30.07 inHg, 1018.3 hPa
Summary: Light thunderstorm, Rain
Clouds: Mostly cloudy
Visibility: 10 miles, 16 km
Cloud details: Partly cloudy 1800 ft
Mostly cloudy 3100 ft
Mostly cloudy 7000 ft
2024/07/19 10:53 KPBI 191053Z 21007KT 10SM -TSRA SCT018 BKN031CB BKN070 26/24 A3007 RMK AO2 RAB03E13B41 SLP182 OCNL LTGICCG N S-SW TS N S-SW MOV N P0003 T02610244
 
KTMB - Miami/Tamiami, Florida, USA
Distance from station: SSW 44mi, 71km
Updated: 07/19/2024 6:53am
Clear
Clear
 Wind from calm
Wind: Calm
Temperature: 75°F, 24°C
Dew Point: 75°F, 24°C
Humidity: 100%
Barometer: 30.06 inHg, 1017.9 hPa
Clouds: Clear
Visibility: 10 miles, 16 km
2024/07/19 10:53 KTMB 191053Z 00000KT 10SM CLR 24/24 A3006 RMK AO2 SLP178 T02440239 $